sensor_id;sensor_type;location;lat;lon;timestamp;temperature;humidity
8798;DHT22;4435;50.898;4.734;2022-08-24T00:00:07;21.80;99.90
8798;DHT22;4435;50.898;4.734;2022-08-24T00:02:33;21.80;99.90
8798;DHT22;4435;50.898;4.734;2022-08-24T00:04:59;21.80;99.90
8798;DHT22;4435;50.898;4.734;2022-08-24T00:07:26;21.80;99.90
8798;DHT22;4435;50.898;4.734;2022-08-24T00:09:51;21.80;99.90
8798;DHT22;4435;50.898;4.734;2022-08-24T00:12:18;21.80;99.90
8798;DHT22;4435;50.898;4.734;2022-08-24T00:14:44;21.80;99.90
8798;DHT22;4435;50.898;4.734;2022-08-24T00:17:11;21.70;99.90
8798;DHT22;4435;50.898;4.734;2022-08-24T00:19:37;21.70;99.90
8798;DHT22;4435;50.898;4.734;2022-08-24T00:22:03;21.60;99.90
8798;DHT22;4435;50.898;4.734;2022-08-24T00:24:29;21.70;99.90
8798;DHT22;4435;50.898;4.734;2022-08-24T00:26:55;21.60;99.90
8798;DHT22;4435;50.898;4.734;2022-08-24T00:29:21;21.60;99.90
8798;DHT22;4435;50.898;4.734;2022-08-24T00:31:48;21.70;99.90
8798;DHT22;4435;50.898;4.734;2022-08-24T00:34:14;21.70;99.90
8798;DHT22;4435;50.898;4.734;2022-08-24T00:36:42;21.70;99.90
8798;DHT22;4435;50.898;4.734;2022-08-24T00:39:08;21.70;99.90
8798;DHT22;4435;50.898;4.734;2022-08-24T00:41:38;21.60;99.90
8798;DHT22;4435;50.898;4.734;2022-08-24T00:44:04;21.60;99.90
8798;DHT22;4435;50.898;4.734;2022-08-24T00:46:57;21.50;99.90
8798;DHT22;4435;50.898;4.734;2022-08-24T00:52:11;21.60;99.90
8798;DHT22;4435;50.898;4.734;2022-08-24T00:54:42;21.60;99.90
8798;DHT22;4435;50.898;4.734;2022-08-24T00:57:09;21.60;99.90
8798;DHT22;4435;50.898;4.734;2022-08-24T00:59:41;21.50;99.90
8798;DHT22;4435;50.898;4.734;2022-08-24T01:02:16;21.50;99.90
8798;DHT22;4435;50.898;4.734;2022-08-24T01:04:50;21.40;99.90
8798;DHT22;4435;50.898;4.734;2022-08-24T01:07:16;21.30;99.90
8798;DHT22;4435;50.898;4.734;2022-08-24T01:09:42;21.30;99.90
8798;DHT22;4435;50.898;4.734;2022-08-24T01:12:08;21.20;99.90
8798;DHT22;4435;50.898;4.734;2022-08-24T01:14:34;21.20;99.90
8798;DHT22;4435;50.898;4.734;2022-08-24T01:17:00;21.30;99.90
8798;DHT22;4435;50.898;4.734;2022-08-24T01:19:49;21.20;99.90
8798;DHT22;4435;50.898;4.734;2022-08-24T01:24:45;21.30;99.90
8798;DHT22;4435;50.898;4.734;2022-08-24T01:27:12;21.20;99.90
8798;DHT22;4435;50.898;4.734;2022-08-24T01:29:41;21.10;99.90
8798;DHT22;4435;50.898;4.734;2022-08-24T01:32:07;21.10;99.90
8798;DHT22;4435;50.898;4.734;2022-08-24T01:34:34;21.10;99.90
8798;DHT22;4435;50.898;4.734;2022-08-24T01:37:00;21.10;99.90
8798;DHT22;4435;50.898;4.734;2022-08-24T01:39:39;21.10;99.90
8798;DHT22;4435;50.898;4.734;2022-08-24T01:42:05;21.00;99.90
8798;DHT22;4435;50.898;4.734;2022-08-24T01:44:33;21.00;99.90
8798;DHT22;4435;50.898;4.734;2022-08-24T01:47:01;21.00;99.90
8798;DHT22;4435;50.898;4.734;2022-08-24T01:49:33;20.90;99.90
8798;DHT22;4435;50.898;4.734;2022-08-24T01:51:59;20.90;99.90
8798;DHT22;4435;50.898;4.734;2022-08-24T01:54:25;21.00;99.90
8798;DHT22;4435;50.898;4.734;2022-08-24T01:56:51;20.90;99.90
8798;DHT22;4435;50.898;4.734;2022-08-24T01:59:17;21.00;99.90
8798;DHT22;4435;50.898;4.734;2022-08-24T02:01:52;20.90;99.90
8798;DHT22;4435;50.898;4.734;2022-08-24T02:04:19;20.90;99.90
8798;DHT22;4435;50.898;4.734;2022-08-24T02:06:45;20.90;99.90
8798;DHT22;4435;50.898;4.734;2022-08-24T02:09:11;20.90;99.90
8798;DHT22;4435;50.898;4.734;2022-08-24T02:11:38;20.90;99.90
8798;DHT22;4435;50.898;4.734;2022-08-24T02:14:05;20.90;99.90
8798;DHT22;4435;50.898;4.734;2022-08-24T02:16:30;20.90;99.90
8798;DHT22;4435;50.898;4.734;2022-08-24T02:18:56;20.90;99.90
8798;DHT22;4435;50.898;4.734;2022-08-24T02:21:23;20.80;99.90
8798;DHT22;4435;50.898;4.734;2022-08-24T02:23:49;20.80;99.90
8798;DHT22;4435;50.898;4.734;2022-08-24T02:26:15;20.80;99.90
8798;DHT22;4435;50.898;4.734;2022-08-24T02:28:41;20.80;99.90
8798;DHT22;4435;50.898;4.734;2022-08-24T02:31:08;20.80;99.90
8798;DHT22;4435;50.898;4.734;2022-08-24T02:33:34;20.70;99.90
8798;DHT22;4435;50.898;4.734;2022-08-24T02:36:01;20.70;99.90
8798;DHT22;4435;50.898;4.734;2022-08-24T02:38:27;20.70;99.90
8798;DHT22;4435;50.898;4.734;2022-08-24T02:40:53;20.70;99.90
8798;DHT22;4435;50.898;4.734;2022-08-24T02:43:19;20.70;99.90
8798;DHT22;4435;50.898;4.734;2022-08-24T02:45:45;20.70;99.90
8798;DHT22;4435;50.898;4.734;2022-08-24T02:48:12;20.70;99.90
8798;DHT22;4435;50.898;4.734;2022-08-24T02:50:40;20.70;99.90
8798;DHT22;4435;50.898;4.734;2022-08-24T02:53:08;20.70;99.90
8798;DHT22;4435;50.898;4.734;2022-08-24T02:55:34;20.70;99.90
8798;DHT22;4435;50.898;4.734;2022-08-24T02:58:00;20.60;99.90
8798;DHT22;4435;50.898;4.734;2022-08-24T03:00:26;20.60;99.90
8798;DHT22;4435;50.898;4.734;2022-08-24T03:02:53;20.60;99.90
8798;DHT22;4435;50.898;4.734;2022-08-24T03:05:20;20.60;99.90
8798;DHT22;4435;50.898;4.734;2022-08-24T03:07:46;20.60;99.90
8798;DHT22;4435;50.898;4.734;2022-08-24T03:10:12;20.60;99.90
8798;DHT22;4435;50.898;4.734;2022-08-24T03:12:39;20.60;99.90
8798;DHT22;4435;50.898;4.734;2022-08-24T03:15:08;20.60;99.90
8798;DHT22;4435;50.898;4.734;2022-08-24T03:17:36;20.70;99.90
8798;DHT22;4435;50.898;4.734;2022-08-24T03:20:05;20.60;99.90
8798;DHT22;4435;50.898;4.734;2022-08-24T03:22:32;20.60;99.90
8798;DHT22;4435;50.898;4.734;2022-08-24T03:24:58;20.70;99.90
8798;DHT22;4435;50.898;4.734;2022-08-24T03:27:24;20.60;99.90
8798;DHT22;4435;50.898;4.734;2022-08-24T03:29:49;20.60;99.90
8798;DHT22;4435;50.898;4.734;2022-08-24T03:32:15;20.50;99.90
8798;DHT22;4435;50.898;4.734;2022-08-24T03:34:42;20.40;99.90
8798;DHT22;4435;50.898;4.734;2022-08-24T03:37:08;20.40;99.90
8798;DHT22;4435;50.898;4.734;2022-08-24T03:39:34;20.40;99.90
8798;DHT22;4435;50.898;4.734;2022-08-24T03:42:00;20.40;99.90
8798;DHT22;4435;50.898;4.734;2022-08-24T03:44:26;20.40;99.90
8798;DHT22;4435;50.898;4.734;2022-08-24T03:46:52;20.40;99.90
8798;DHT22;4435;50.898;4.734;2022-08-24T03:49:19;20.40;99.90
8798;DHT22;4435;50.898;4.734;2022-08-24T03:51:45;20.40;99.90
8798;DHT22;4435;50.898;4.734;2022-08-24T03:54:12;20.40;99.90
8798;DHT22;4435;50.898;4.734;2022-08-24T03:56:38;20.40;99.90
8798;DHT22;4435;50.898;4.734;2022-08-24T03:59:05;20.40;99.90
8798;DHT22;4435;50.898;4.734;2022-08-24T04:01:32;20.30;99.90
8798;DHT22;4435;50.898;4.734;2022-08-24T04:03:58;20.40;99.90
8798;DHT22;4435;50.898;4.734;2022-08-24T04:06:24;20.30;99.90
8798;DHT22;4435;50.898;4.734;2022-08-24T04:08:51;20.30;99.90
8798;DHT22;4435;50.898;4.734;2022-08-24T04:11:24;20.30;99.90
8798;DHT22;4435;50.898;4.734;2022-08-24T04:13:55;20.20;99.90
8798;DHT22;4435;50.898;4.734;2022-08-24T04:16:22;20.20;99.90
8798;DHT22;4435;50.898;4.734;2022-08-24T04:18:49;20.20;99.90
8798;DHT22;4435;50.898;4.734;2022-08-24T04:21:27;20.20;99.90
8798;DHT22;4435;50.898;4.734;2022-08-24T04:23:55;20.20;99.90
8798;DHT22;4435;50.898;4.734;2022-08-24T04:26:24;20.20;99.90
8798;DHT22;4435;50.898;4.734;2022-08-24T04:28:50;20.20;99.90
8798;DHT22;4435;50.898;4.734;2022-08-24T04:31:16;20.10;99.90
8798;DHT22;4435;50.898;4.734;2022-08-24T04:33:44;20.10;99.90
8798;DHT22;4435;50.898;4.734;2022-08-24T04:36:12;20.10;99.90
8798;DHT22;4435;50.898;4.734;2022-08-24T04:38:38;20.00;99.90
8798;DHT22;4435;50.898;4.734;2022-08-24T04:41:06;20.00;99.90
8798;DHT22;4435;50.898;4.734;2022-08-24T04:43:33;20.00;99.90
8798;DHT22;4435;50.898;4.734;2022-08-24T04:46:02;20.00;99.90
8798;DHT22;4435;50.898;4.734;2022-08-24T04:48:29;20.00;99.90
8798;DHT22;4435;50.898;4.734;2022-08-24T04:51:00;20.00;99.90
8798;DHT22;4435;50.898;4.734;2022-08-24T04:53:27;20.00;99.90
8798;DHT22;4435;50.898;4.734;2022-08-24T04:55:53;20.00;99.90
8798;DHT22;4435;50.898;4.734;2022-08-24T04:58:19;20.00;99.90
8798;DHT22;4435;50.898;4.734;2022-08-24T05:00:46;20.10;99.90
8798;DHT22;4435;50.898;4.734;2022-08-24T05:03:12;20.10;99.90
8798;DHT22;4435;50.898;4.734;2022-08-24T05:05:46;20.10;99.90
8798;DHT22;4435;50.898;4.734;2022-08-24T05:08:13;20.10;99.90
8798;DHT22;4435;50.898;4.734;2022-08-24T05:10:41;20.00;99.90
8798;DHT22;4435;50.898;4.734;2022-08-24T05:13:08;20.00;99.90
8798;DHT22;4435;50.898;4.734;2022-08-24T05:15:34;20.00;99.90
8798;DHT22;4435;50.898;4.734;2022-08-24T05:18:01;19.90;99.90
8798;DHT22;4435;50.898;4.734;2022-08-24T05:20:27;19.90;99.90
8798;DHT22;4435;50.898;4.734;2022-08-24T05:22:54;19.80;99.90
8798;DHT22;4435;50.898;4.734;2022-08-24T05:25:20;19.90;99.90
8798;DHT22;4435;50.898;4.734;2022-08-24T05:27:46;19.90;99.90
8798;DHT22;4435;50.898;4.734;2022-08-24T05:30:13;19.90;99.90
8798;DHT22;4435;50.898;4.734;2022-08-24T05:32:39;19.90;99.90
8798;DHT22;4435;50.898;4.734;2022-08-24T05:35:06;20.00;99.90
8798;DHT22;4435;50.898;4.734;2022-08-24T05:37:36;20.00;99.90
8798;DHT22;4435;50.898;4.734;2022-08-24T05:40:05;20.00;99.90
8798;DHT22;4435;50.898;4.734;2022-08-24T05:42:31;20.00;99.90
8798;DHT22;4435;50.898;4.734;2022-08-24T05:44:57;20.00;99.90
8798;DHT22;4435;50.898;4.734;2022-08-24T05:47:23;20.10;99.90
8798;DHT22;4435;50.898;4.734;2022-08-24T05:49:50;20.10;99.90
8798;DHT22;4435;50.898;4.734;2022-08-24T05:52:19;20.10;99.90
8798;DHT22;4435;50.898;4.734;2022-08-24T05:54:50;20.10;99.90
8798;DHT22;4435;50.898;4.734;2022-08-24T05:57:17;20.10;99.90
8798;DHT22;4435;50.898;4.734;2022-08-24T05:59:43;20.20;99.90
8798;DHT22;4435;50.898;4.734;2022-08-24T06:02:09;20.20;99.90
8798;DHT22;4435;50.898;4.734;2022-08-24T06:04:35;20.20;99.90
8798;DHT22;4435;50.898;4.734;2022-08-24T06:07:03;20.10;99.90
8798;DHT22;4435;50.898;4.734;2022-08-24T06:09:30;20.10;99.90
8798;DHT22;4435;50.898;4.734;2022-08-24T06:11:55;20.20;99.90
8798;DHT22;4435;50.898;4.734;2022-08-24T06:14:21;20.20;99.90
8798;DHT22;4435;50.898;4.734;2022-08-24T06:16:47;20.20;99.90
8798;DHT22;4435;50.898;4.734;2022-08-24T06:19:15;20.30;99.90
8798;DHT22;4435;50.898;4.734;2022-08-24T06:21:42;20.30;99.90
8798;DHT22;4435;50.898;4.734;2022-08-24T06:24:08;20.40;99.90
8798;DHT22;4435;50.898;4.734;2022-08-24T06:26:34;20.40;99.90
8798;DHT22;4435;50.898;4.734;2022-08-24T06:29:19;20.40;99.90
8798;DHT22;4435;50.898;4.734;2022-08-24T06:31:47;20.40;99.90
8798;DHT22;4435;50.898;4.734;2022-08-24T06:34:15;20.30;99.90
8798;DHT22;4435;50.898;4.734;2022-08-24T06:36:41;20.50;99.90
8798;DHT22;4435;50.898;4.734;2022-08-24T06:39:07;20.60;99.90
8798;DHT22;4435;50.898;4.734;2022-08-24T06:41:34;20.60;99.90
8798;DHT22;4435;50.898;4.734;2022-08-24T06:44:00;20.70;99.90
8798;DHT22;4435;50.898;4.734;2022-08-24T06:46:26;20.70;99.90
8798;DHT22;4435;50.898;4.734;2022-08-24T06:48:53;20.80;99.90
8798;DHT22;4435;50.898;4.734;2022-08-24T06:51:20;20.80;99.90
8798;DHT22;4435;50.898;4.734;2022-08-24T06:53:50;20.90;99.90
8798;DHT22;4435;50.898;4.734;2022-08-24T06:56:16;20.90;99.90
8798;DHT22;4435;50.898;4.734;2022-08-24T06:58:43;21.00;99.90
8798;DHT22;4435;50.898;4.734;2022-08-24T07:01:16;21.00;99.90
8798;DHT22;4435;50.898;4.734;2022-08-24T07:03:43;21.10;99.90
8798;DHT22;4435;50.898;4.734;2022-08-24T07:06:10;21.10;99.90
8798;DHT22;4435;50.898;4.734;2022-08-24T07:08:37;21.20;99.90
8798;DHT22;4435;50.898;4.734;2022-08-24T07:11:04;21.20;99.90
8798;DHT22;4435;50.898;4.734;2022-08-24T07:13:31;21.20;99.90
8798;DHT22;4435;50.898;4.734;2022-08-24T07:15:57;21.30;99.90
8798;DHT22;4435;50.898;4.734;2022-08-24T07:18:23;21.30;99.90
8798;DHT22;4435;50.898;4.734;2022-08-24T07:20:49;21.30;99.90
8798;DHT22;4435;50.898;4.734;2022-08-24T07:23:16;21.40;99.90
8798;DHT22;4435;50.898;4.734;2022-08-24T07:25:43;21.40;99.90
8798;DHT22;4435;50.898;4.734;2022-08-24T07:28:10;21.50;99.90
8798;DHT22;4435;50.898;4.734;2022-08-24T07:30:37;21.50;99.90
8798;DHT22;4435;50.898;4.734;2022-08-24T07:33:03;21.50;99.90
8798;DHT22;4435;50.898;4.734;2022-08-24T07:35:30;21.60;99.90
8798;DHT22;4435;50.898;4.734;2022-08-24T07:37:58;21.60;99.90
8798;DHT22;4435;50.898;4.734;2022-08-24T07:40:26;21.60;99.90
8798;DHT22;4435;50.898;4.734;2022-08-24T07:42:54;21.70;99.90
8798;DHT22;4435;50.898;4.734;2022-08-24T07:45:20;21.70;99.90
8798;DHT22;4435;50.898;4.734;2022-08-24T07:47:48;21.70;99.90
8798;DHT22;4435;50.898;4.734;2022-08-24T07:50:15;21.80;99.90
8798;DHT22;4435;50.898;4.734;2022-08-24T07:52:42;21.80;99.90
8798;DHT22;4435;50.898;4.734;2022-08-24T07:55:10;21.80;99.90
8798;DHT22;4435;50.898;4.734;2022-08-24T07:57:38;21.90;99.90
8798;DHT22;4435;50.898;4.734;2022-08-24T08:00:07;21.90;99.90
8798;DHT22;4435;50.898;4.734;2022-08-24T08:02:33;21.90;99.90
8798;DHT22;4435;50.898;4.734;2022-08-24T08:04:59;21.90;99.90
8798;DHT22;4435;50.898;4.734;2022-08-24T08:07:25;21.90;99.90
8798;DHT22;4435;50.898;4.734;2022-08-24T08:09:51;22.00;99.90
8798;DHT22;4435;50.898;4.734;2022-08-24T08:12:17;22.00;99.90
8798;DHT22;4435;50.898;4.734;2022-08-24T08:14:44;22.00;99.90
8798;DHT22;4435;50.898;4.734;2022-08-24T08:17:10;22.00;99.90
8798;DHT22;4435;50.898;4.734;2022-08-24T08:19:37;22.00;99.90
8798;DHT22;4435;50.898;4.734;2022-08-24T08:22:03;22.10;99.90
8798;DHT22;4435;50.898;4.734;2022-08-24T08:24:48;22.10;99.90
8798;DHT22;4435;50.898;4.734;2022-08-24T08:27:15;22.10;99.90
8798;DHT22;4435;50.898;4.734;2022-08-24T08:29:42;22.20;99.90
8798;DHT22;4435;50.898;4.734;2022-08-24T08:32:10;22.20;99.90
8798;DHT22;4435;50.898;4.734;2022-08-24T08:34:45;22.30;99.90
8798;DHT22;4435;50.898;4.734;2022-08-24T08:37:12;22.30;99.90
8798;DHT22;4435;50.898;4.734;2022-08-24T08:39:38;22.30;99.90
8798;DHT22;4435;50.898;4.734;2022-08-24T08:42:29;22.40;99.90
8798;DHT22;4435;50.898;4.734;2022-08-24T08:50:24;22.50;99.90
8798;DHT22;4435;50.898;4.734;2022-08-24T08:56:08;22.60;99.90
8798;DHT22;4435;50.898;4.734;2022-08-24T09:01:53;22.80;99.90
8798;DHT22;4435;50.898;4.734;2022-08-24T09:04:49;22.80;99.90
8798;DHT22;4435;50.898;4.734;2022-08-24T09:07:34;22.80;99.90
8798;DHT22;4435;50.898;4.734;2022-08-24T09:18:57;22.90;99.90
8798;DHT22;4435;50.898;4.734;2022-08-24T09:21:54;23.00;99.90
8798;DHT22;4435;50.898;4.734;2022-08-24T09:27:41;23.00;99.90
8798;DHT22;4435;50.898;4.734;2022-08-24T09:30:15;23.10;99.90
8798;DHT22;4435;50.898;4.734;2022-08-24T09:33:05;23.10;99.90
8798;DHT22;4435;50.898;4.734;2022-08-24T10:00:54;23.90;99.90
8798;DHT22;4435;50.898;4.734;2022-08-24T10:22:59;24.70;99.90
8798;DHT22;4435;50.898;4.734;2022-08-24T10:26:17;24.80;99.90
8798;DHT22;4435;50.898;4.734;2022-08-24T10:39:06;25.20;99.90
8798;DHT22;4435;50.898;4.734;2022-08-24T10:42:01;25.30;99.90
8798;DHT22;4435;50.898;4.734;2022-08-24T10:50:19;25.60;99.90
8798;DHT22;4435;50.898;4.734;2022-08-24T10:55:41;25.70;99.90
8798;DHT22;4435;50.898;4.734;2022-08-24T11:01:23;25.90;99.90
8798;DHT22;4435;50.898;4.734;2022-08-24T11:03:52;26.10;99.90
8798;DHT22;4435;50.898;4.734;2022-08-24T11:06:19;26.20;99.90
8798;DHT22;4435;50.898;4.734;2022-08-24T11:09:15;26.20;99.90
8798;DHT22;4435;50.898;4.734;2022-08-24T11:11:47;25.80;99.90
8798;DHT22;4435;50.898;4.734;2022-08-24T11:14:28;26.10;99.90
8798;DHT22;4435;50.898;4.734;2022-08-24T11:17:15;26.20;99.90
8798;DHT22;4435;50.898;4.734;2022-08-24T11:19:41;26.20;99.90
8798;DHT22;4435;50.898;4.734;2022-08-24T11:25:01;26.20;99.90
8798;DHT22;4435;50.898;4.734;2022-08-24T11:27:45;26.20;99.90
8798;DHT22;4435;50.898;4.734;2022-08-24T11:30:30;26.30;99.90
8798;DHT22;4435;50.898;4.734;2022-08-24T11:33:00;26.40;99.90
8798;DHT22;4435;50.898;4.734;2022-08-24T11:37:55;26.40;99.90
8798;DHT22;4435;50.898;4.734;2022-08-24T11:40:27;26.40;99.90
8798;DHT22;4435;50.898;4.734;2022-08-24T11:48:33;26.40;99.90
8798;DHT22;4435;50.898;4.734;2022-08-24T11:53:39;26.40;99.90
8798;DHT22;4435;50.898;4.734;2022-08-24T12:01:33;26.60;99.90
8798;DHT22;4435;50.898;4.734;2022-08-24T12:07:14;27.00;99.90
8798;DHT22;4435;50.898;4.734;2022-08-24T12:12:20;27.20;99.90
8798;DHT22;4435;50.898;4.734;2022-08-24T12:14:54;27.30;99.90
8798;DHT22;4435;50.898;4.734;2022-08-24T12:20:37;27.20;99.90
8798;DHT22;4435;50.898;4.734;2022-08-24T12:23:16;27.20;99.90
8798;DHT22;4435;50.898;4.734;2022-08-24T12:25:45;27.30;99.90
8798;DHT22;4435;50.898;4.734;2022-08-24T12:28:41;27.40;99.90
8798;DHT22;4435;50.898;4.734;2022-08-24T12:33:51;27.70;99.90
8798;DHT22;4435;50.898;4.734;2022-08-24T12:36:31;27.80;99.90
8798;DHT22;4435;50.898;4.734;2022-08-24T12:39:17;27.90;99.90
8798;DHT22;4435;50.898;4.734;2022-08-24T12:42:07;27.90;99.90
8798;DHT22;4435;50.898;4.734;2022-08-24T12:44:46;27.90;99.90
8798;DHT22;4435;50.898;4.734;2022-08-24T12:50:26;27.90;99.90
8798;DHT22;4435;50.898;4.734;2022-08-24T12:55:45;28.00;99.90
8798;DHT22;4435;50.898;4.734;2022-08-24T13:00:56;28.00;99.90
8798;DHT22;4435;50.898;4.734;2022-08-24T13:03:36;28.10;99.90
8798;DHT22;4435;50.898;4.734;2022-08-24T13:06:08;28.20;99.90
8798;DHT22;4435;50.898;4.734;2022-08-24T13:08:38;28.20;99.90
8798;DHT22;4435;50.898;4.734;2022-08-24T13:11:27;28.20;99.90
8798;DHT22;4435;50.898;4.734;2022-08-24T13:19:31;28.40;99.90
8798;DHT22;4435;50.898;4.734;2022-08-24T13:22:00;28.50;99.90
8798;DHT22;4435;50.898;4.734;2022-08-24T13:25:17;28.60;99.90
8798;DHT22;4435;50.898;4.734;2022-08-24T13:27:47;28.70;99.90
8798;DHT22;4435;50.898;4.734;2022-08-24T13:30:27;28.90;99.90
8798;DHT22;4435;50.898;4.734;2022-08-24T13:33:08;28.60;99.90
8798;DHT22;4435;50.898;4.734;2022-08-24T13:40:52;28.80;99.90
8798;DHT22;4435;50.898;4.734;2022-08-24T13:43:31;28.80;99.90
8798;DHT22;4435;50.898;4.734;2022-08-24T13:46:13;28.80;99.90
8798;DHT22;4435;50.898;4.734;2022-08-24T13:48:59;28.70;99.90
8798;DHT22;4435;50.898;4.734;2022-08-24T13:57:26;28.80;99.90
8798;DHT22;4435;50.898;4.734;2022-08-24T14:22:50;29.10;99.90
8798;DHT22;4435;50.898;4.734;2022-08-24T14:25:23;29.20;99.90
8798;DHT22;4435;50.898;4.734;2022-08-24T14:31:21;29.20;99.90
8798;DHT22;4435;50.898;4.734;2022-08-24T14:34:16;29.20;99.90
8798;DHT22;4435;50.898;4.734;2022-08-24T14:42:15;29.10;99.90
8798;DHT22;4435;50.898;4.734;2022-08-24T14:50:18;29.00;99.90
8798;DHT22;4435;50.898;4.734;2022-08-24T14:53:38;29.10;99.90
8798;DHT22;4435;50.898;4.734;2022-08-24T14:56:12;29.00;99.90
8798;DHT22;4435;50.898;4.734;2022-08-24T14:58:55;29.00;99.90
8798;DHT22;4435;50.898;4.734;2022-08-24T15:01:45;29.10;99.90
8798;DHT22;4435;50.898;4.734;2022-08-24T15:10:10;29.40;99.90
8798;DHT22;4435;50.898;4.734;2022-08-24T15:12:47;29.50;99.90
8798;DHT22;4435;50.898;4.734;2022-08-24T15:15:32;29.60;99.90
8798;DHT22;4435;50.898;4.734;2022-08-24T15:20:59;29.60;99.90
8798;DHT22;4435;50.898;4.734;2022-08-24T15:23:58;29.50;99.90
8798;DHT22;4435;50.898;4.734;2022-08-24T15:29:16;29.40;99.90
8798;DHT22;4435;50.898;4.734;2022-08-24T15:31:54;29.30;99.90
8798;DHT22;4435;50.898;4.734;2022-08-24T15:34:53;29.10;99.90
8798;DHT22;4435;50.898;4.734;2022-08-24T15:37:33;29.00;99.90
8798;DHT22;4435;50.898;4.734;2022-08-24T15:40:00;28.80;99.90
8798;DHT22;4435;50.898;4.734;2022-08-24T15:42:29;28.70;99.90
8798;DHT22;4435;50.898;4.734;2022-08-24T15:45:00;28.60;99.90
8798;DHT22;4435;50.898;4.734;2022-08-24T15:47:35;28.50;99.90
8798;DHT22;4435;50.898;4.734;2022-08-24T15:52:53;28.30;99.90
8798;DHT22;4435;50.898;4.734;2022-08-24T15:55:36;28.20;99.90
8798;DHT22;4435;50.898;4.734;2022-08-24T16:00:37;28.20;99.90
8798;DHT22;4435;50.898;4.734;2022-08-24T16:11:39;28.00;99.90
8798;DHT22;4435;50.898;4.734;2022-08-24T16:14:21;28.00;99.90
8798;DHT22;4435;50.898;4.734;2022-08-24T16:16:50;28.00;99.90
8798;DHT22;4435;50.898;4.734;2022-08-24T16:19:24;27.90;99.90
8798;DHT22;4435;50.898;4.734;2022-08-24T16:22:08;27.90;99.90
8798;DHT22;4435;50.898;4.734;2022-08-24T16:24:41;27.90;99.90
8798;DHT22;4435;50.898;4.734;2022-08-24T16:27:11;27.90;99.90
8798;DHT22;4435;50.898;4.734;2022-08-24T16:34:35;27.90;99.90
8798;DHT22;4435;50.898;4.734;2022-08-24T16:37:02;27.90;99.90
8798;DHT22;4435;50.898;4.734;2022-08-24T16:39:29;27.90;99.90
8798;DHT22;4435;50.898;4.734;2022-08-24T16:42:00;27.90;99.90
8798;DHT22;4435;50.898;4.734;2022-08-24T16:44:33;28.00;99.90
8798;DHT22;4435;50.898;4.734;2022-08-24T16:47:00;28.00;99.90
8798;DHT22;4435;50.898;4.734;2022-08-24T16:49:26;28.00;99.90
8798;DHT22;4435;50.898;4.734;2022-08-24T16:51:52;28.10;99.90
8798;DHT22;4435;50.898;4.734;2022-08-24T16:54:17;28.20;99.90
8798;DHT22;4435;50.898;4.734;2022-08-24T16:56:44;28.30;99.90
8798;DHT22;4435;50.898;4.734;2022-08-24T16:59:24;28.30;99.90
8798;DHT22;4435;50.898;4.734;2022-08-24T17:01:50;28.40;99.90
8798;DHT22;4435;50.898;4.734;2022-08-24T17:04:16;28.40;99.90
8798;DHT22;4435;50.898;4.734;2022-08-24T17:06:42;28.50;99.90
8798;DHT22;4435;50.898;4.734;2022-08-24T17:09:08;28.60;99.90
8798;DHT22;4435;50.898;4.734;2022-08-24T17:11:34;28.60;99.90
8798;DHT22;4435;50.898;4.734;2022-08-24T17:14:01;28.50;99.90
8798;DHT22;4435;50.898;4.734;2022-08-24T17:16:26;28.60;99.90
8798;DHT22;4435;50.898;4.734;2022-08-24T17:18:53;28.60;99.90
8798;DHT22;4435;50.898;4.734;2022-08-24T17:21:19;28.50;99.90
8798;DHT22;4435;50.898;4.734;2022-08-24T17:23:44;28.50;99.90
8798;DHT22;4435;50.898;4.734;2022-08-24T17:26:12;28.40;99.90
8798;DHT22;4435;50.898;4.734;2022-08-24T17:28:40;28.40;99.90
8798;DHT22;4435;50.898;4.734;2022-08-24T17:31:07;28.30;99.90
8798;DHT22;4435;50.898;4.734;2022-08-24T17:33:34;28.10;99.90
8798;DHT22;4435;50.898;4.734;2022-08-24T17:36:01;28.20;99.90
8798;DHT22;4435;50.898;4.734;2022-08-24T17:38:28;28.10;99.90
8798;DHT22;4435;50.898;4.734;2022-08-24T17:40:54;28.10;99.90
8798;DHT22;4435;50.898;4.734;2022-08-24T17:43:21;28.00;99.90
8798;DHT22;4435;50.898;4.734;2022-08-24T17:45:46;27.90;99.90
8798;DHT22;4435;50.898;4.734;2022-08-24T17:48:21;27.90;99.90
8798;DHT22;4435;50.898;4.734;2022-08-24T17:50:48;27.80;99.90
8798;DHT22;4435;50.898;4.734;2022-08-24T17:53:13;27.80;99.90
8798;DHT22;4435;50.898;4.734;2022-08-24T17:55:39;27.70;99.90
8798;DHT22;4435;50.898;4.734;2022-08-24T17:58:05;27.70;99.90
8798;DHT22;4435;50.898;4.734;2022-08-24T18:00:31;27.60;99.90
8798;DHT22;4435;50.898;4.734;2022-08-24T18:02:56;27.60;99.90
8798;DHT22;4435;50.898;4.734;2022-08-24T18:05:22;27.50;99.90
8798;DHT22;4435;50.898;4.734;2022-08-24T18:07:50;27.50;99.90
8798;DHT22;4435;50.898;4.734;2022-08-24T18:10:21;27.50;99.90
8798;DHT22;4435;50.898;4.734;2022-08-24T18:12:48;27.40;99.90
8798;DHT22;4435;50.898;4.734;2022-08-24T18:15:15;27.40;99.90
8798;DHT22;4435;50.898;4.734;2022-08-24T18:17:47;27.30;99.90
8798;DHT22;4435;50.898;4.734;2022-08-24T18:20:15;27.30;99.90
8798;DHT22;4435;50.898;4.734;2022-08-24T18:22:45;27.30;99.90
8798;DHT22;4435;50.898;4.734;2022-08-24T18:25:13;27.20;99.90
8798;DHT22;4435;50.898;4.734;2022-08-24T18:27:41;27.20;99.90
8798;DHT22;4435;50.898;4.734;2022-08-24T18:30:14;27.10;99.90
8798;DHT22;4435;50.898;4.734;2022-08-24T18:32:41;27.10;99.90
8798;DHT22;4435;50.898;4.734;2022-08-24T18:35:07;27.10;99.90
8798;DHT22;4435;50.898;4.734;2022-08-24T18:37:33;27.00;99.90
8798;DHT22;4435;50.898;4.734;2022-08-24T18:39:58;26.90;99.90
8798;DHT22;4435;50.898;4.734;2022-08-24T18:42:26;26.90;99.90
8798;DHT22;4435;50.898;4.734;2022-08-24T18:44:52;26.90;99.90
8798;DHT22;4435;50.898;4.734;2022-08-24T18:47:19;26.90;99.90
8798;DHT22;4435;50.898;4.734;2022-08-24T18:49:45;26.80;99.90
8798;DHT22;4435;50.898;4.734;2022-08-24T18:52:12;26.80;99.90
8798;DHT22;4435;50.898;4.734;2022-08-24T18:54:40;26.80;99.90
8798;DHT22;4435;50.898;4.734;2022-08-24T18:57:09;26.70;99.90
8798;DHT22;4435;50.898;4.734;2022-08-24T18:59:36;26.70;99.90
8798;DHT22;4435;50.898;4.734;2022-08-24T19:02:12;26.60;99.90
8798;DHT22;4435;50.898;4.734;2022-08-24T19:05:05;26.60;99.90
8798;DHT22;4435;50.898;4.734;2022-08-24T19:07:35;26.50;99.90
8798;DHT22;4435;50.898;4.734;2022-08-24T19:10:02;26.50;99.90
8798;DHT22;4435;50.898;4.734;2022-08-24T19:12:31;26.50;99.90
8798;DHT22;4435;50.898;4.734;2022-08-24T19:14:59;26.40;99.90
8798;DHT22;4435;50.898;4.734;2022-08-24T19:17:25;26.40;99.90
8798;DHT22;4435;50.898;4.734;2022-08-24T19:19:51;26.40;99.90
8798;DHT22;4435;50.898;4.734;2022-08-24T19:22:18;26.30;99.90
8798;DHT22;4435;50.898;4.734;2022-08-24T19:24:45;26.30;99.90
8798;DHT22;4435;50.898;4.734;2022-08-24T19:27:11;26.30;99.90
8798;DHT22;4435;50.898;4.734;2022-08-24T19:29:37;26.30;99.90
8798;DHT22;4435;50.898;4.734;2022-08-24T19:32:04;26.20;99.90
8798;DHT22;4435;50.898;4.734;2022-08-24T19:34:30;26.20;99.90
8798;DHT22;4435;50.898;4.734;2022-08-24T19:36:56;26.10;99.90
8798;DHT22;4435;50.898;4.734;2022-08-24T19:39:22;26.10;99.90
8798;DHT22;4435;50.898;4.734;2022-08-24T19:41:48;26.10;99.90
8798;DHT22;4435;50.898;4.734;2022-08-24T19:44:17;26.10;99.90
8798;DHT22;4435;50.898;4.734;2022-08-24T19:47:05;26.00;99.90
8798;DHT22;4435;50.898;4.734;2022-08-24T19:49:31;26.00;99.90
8798;DHT22;4435;50.898;4.734;2022-08-24T19:51:58;26.00;99.90
8798;DHT22;4435;50.898;4.734;2022-08-24T19:54:31;26.00;99.90
8798;DHT22;4435;50.898;4.734;2022-08-24T19:56:57;26.00;99.90
8798;DHT22;4435;50.898;4.734;2022-08-24T19:59:27;26.00;99.90